createdAt,value
2023-02-19T00:01:43.829Z,4.70
2023-02-19T00:04:15.578Z,4.80
2023-02-19T00:06:45.053Z,4.03
2023-02-19T00:09:14.109Z,4.38
2023-02-19T00:11:42.215Z,4.13
2023-02-19T00:14:11.351Z,4.00
2023-02-19T00:16:40.142Z,4.03
2023-02-19T00:19:12.537Z,3.08
2023-02-19T00:21:40.214Z,4.78
2023-02-19T00:24:10.496Z,3.85
2023-02-19T00:26:39.872Z,2.38
2023-02-19T00:29:07.210Z,3.88
2023-02-19T00:31:35.665Z,4.10
2023-02-19T00:34:05.535Z,4.03
2023-02-19T00:36:37.727Z,2.72
2023-02-19T00:39:06.900Z,4.40
2023-02-19T00:41:34.691Z,3.80
2023-02-19T00:44:06.233Z,5.15
2023-02-19T00:46:36.684Z,4.28
2023-02-19T00:49:05.667Z,6.30
2023-02-19T00:51:36.429Z,4.05
2023-02-19T00:54:05.055Z,3.90
2023-02-19T00:56:32.295Z,4.10
2023-02-19T00:58:59.746Z,2.30
2023-02-19T01:01:27.318Z,4.75
2023-02-19T01:03:54.741Z,5.78
2023-02-19T01:06:22.197Z,5.05
2023-02-19T01:08:50.324Z,4.13
2023-02-19T01:11:18.634Z,5.05
2023-02-19T01:13:46.006Z,2.83
2023-02-19T01:16:19.417Z,3.10
2023-02-19T01:18:48.051Z,4.28
2023-02-19T01:21:21.008Z,5.55
2023-02-19T01:23:49.940Z,4.15
2023-02-19T01:26:20.530Z,2.47
2023-02-19T01:28:48.464Z,5.10
2023-02-19T01:31:21.355Z,5.07
2023-02-19T01:33:51.072Z,4.75
2023-02-19T01:36:18.962Z,6.18
2023-02-19T01:38:47.057Z,2.10
2023-02-19T01:41:19.544Z,4.30
2023-02-19T01:44:03.353Z,4.60
2023-02-19T01:46:35.521Z,3.53
2023-02-19T01:49:06.596Z,3.83
2023-02-19T01:51:36.353Z,4.05
2023-02-19T01:54:07.028Z,5.97
2023-02-19T01:56:38.370Z,4.55
2023-02-19T01:59:07.401Z,4.50
2023-02-19T02:01:38.588Z,5.75
2023-02-19T02:04:07.766Z,5.00
2023-02-19T02:06:41.140Z,3.70
2023-02-19T02:09:27.317Z,4.00
2023-02-19T02:11:54.618Z,5.65
2023-02-19T02:14:26.801Z,4.57
2023-02-19T02:17:12.713Z,5.35
2023-02-19T02:20:28.258Z,5.20
2023-02-19T02:23:15.446Z,4.25
2023-02-19T02:25:49.115Z,4.93
2023-02-19T02:28:38.380Z,4.30
2023-02-19T02:31:17.114Z,4.25
2023-02-19T02:33:55.306Z,4.43
2023-02-19T02:36:28.996Z,4.45
2023-02-19T02:38:58.281Z,4.32
2023-02-19T02:41:26.451Z,4.30
2023-02-19T02:43:54.124Z,3.75
2023-02-19T02:46:32.561Z,5.70
2023-02-19T02:49:05.318Z,4.38
2023-02-19T02:51:35.065Z,4.22
2023-02-19T02:54:33.229Z,4.03
2023-02-19T02:57:04.435Z,4.22
2023-02-19T02:59:39.570Z,4.35
2023-02-19T03:02:14.707Z,4.20
2023-02-19T03:05:25.186Z,6.53
2023-02-19T03:08:09.861Z,4.60
2023-02-19T03:10:45.955Z,4.50
2023-02-19T03:13:56.269Z,4.20
2023-02-19T03:16:49.390Z,4.75
2023-02-19T03:19:20.367Z,3.45
2023-02-19T03:22:19.948Z,5.20
2023-02-19T03:25:14.905Z,3.70
2023-02-19T03:27:44.702Z,4.20
2023-02-19T03:30:21.796Z,3.85
2023-02-19T03:32:57.334Z,3.35
2023-02-19T03:35:29.356Z,4.50
2023-02-19T03:38:02.775Z,5.57
2023-02-19T03:40:39.972Z,2.63
2023-02-19T03:43:24.718Z,5.57
2023-02-19T03:46:05.709Z,3.33
2023-02-19T03:48:41.368Z,3.65
2023-02-19T03:51:26.691Z,3.53
2023-02-19T03:54:21.259Z,4.18
2023-02-19T03:57:17.610Z,4.53
2023-02-19T03:59:59.335Z,3.35
2023-02-19T04:02:36.902Z,4.10
2023-02-19T04:05:10.067Z,3.65
2023-02-19T04:07:41.782Z,2.65
2023-02-19T04:10:11.055Z,3.17
2023-02-19T04:12:48.904Z,3.95
2023-02-19T04:15:25.481Z,3.65
2023-02-19T04:18:00.264Z,2.10
2023-02-19T04:20:32.215Z,4.20
2023-02-19T04:22:59.747Z,6.32
2023-02-19T04:25:28.928Z,3.95
2023-02-19T04:27:57.107Z,5.05
2023-02-19T04:30:24.880Z,3.67
2023-02-19T04:32:52.213Z,3.17
2023-02-19T04:35:19.503Z,3.83
2023-02-19T04:37:46.955Z,3.67
2023-02-19T04:40:14.285Z,4.13
2023-02-19T04:42:41.731Z,4.50
2023-02-19T04:45:10.314Z,3.50
2023-02-19T04:47:37.560Z,4.25
2023-02-19T04:50:05.261Z,3.38
2023-02-19T04:52:33.369Z,2.78
2023-02-19T04:55:00.616Z,3.42
2023-02-19T04:57:28.111Z,4.47
2023-02-19T04:59:55.830Z,4.85
2023-02-19T05:02:23.227Z,3.13
2023-02-19T05:04:50.722Z,2.30
2023-02-19T05:07:18.289Z,2.88
2023-02-19T05:09:45.662Z,2.70
2023-02-19T05:12:13.005Z,2.38
2023-02-19T05:14:40.308Z,2.60
2023-02-19T05:17:07.599Z,2.25
2023-02-19T05:19:35.022Z,2.70
2023-02-19T05:22:02.295Z,2.78
2023-02-19T05:24:31.573Z,2.65
2023-02-19T05:26:59.022Z,2.80
2023-02-19T05:29:26.460Z,2.88
2023-02-19T05:31:54.019Z,2.60
2023-02-19T05:34:21.410Z,2.63
2023-02-19T05:36:48.798Z,2.90
2023-02-19T05:39:16.593Z,2.22
2023-02-19T05:41:43.884Z,3.33
2023-02-19T05:44:11.606Z,2.83
2023-02-19T05:46:39.056Z,2.03
2023-02-19T05:49:07.281Z,2.40
2023-02-19T05:51:34.643Z,2.50
2023-02-19T05:54:01.996Z,2.72
2023-02-19T05:56:38.172Z,7.45
2023-02-19T05:59:19.699Z,2.75
2023-02-19T06:01:48.217Z,2.50
2023-02-19T06:04:17.274Z,2.13
2023-02-19T06:06:45.225Z,2.40
2023-02-19T06:09:13.554Z,2.28
2023-02-19T06:11:40.893Z,2.03
2023-02-19T06:14:08.268Z,3.58
2023-02-19T06:16:35.566Z,2.90
2023-02-19T06:19:04.471Z,2.50
2023-02-19T06:21:32.215Z,2.92
2023-02-19T06:24:03.887Z,2.33
2023-02-19T06:26:31.280Z,2.45
2023-02-19T06:28:58.743Z,2.67
2023-02-19T06:31:26.126Z,3.45
2023-02-19T06:33:56.025Z,1.80
2023-02-19T06:36:24.131Z,2.83
2023-02-19T06:38:52.469Z,2.40
2023-02-19T06:41:20.041Z,2.30
2023-02-19T06:43:47.415Z,2.40
2023-02-19T06:46:15.684Z,2.83
2023-02-19T06:48:44.360Z,2.00
2023-02-19T06:51:18.821Z,3.05
2023-02-19T06:53:46.430Z,2.80
2023-02-19T06:56:31.633Z,3.45
2023-02-19T06:59:01.221Z,2.38
2023-02-19T07:01:30.641Z,2.15
2023-02-19T07:03:58.675Z,2.35
2023-02-19T07:06:26.906Z,2.95
2023-02-19T07:08:56.179Z,2.22
2023-02-19T07:11:24.506Z,2.72
2023-02-19T07:14:03.207Z,2.78
2023-02-19T07:16:30.810Z,2.05
2023-02-19T07:18:59.724Z,3.13
2023-02-19T07:21:28.225Z,2.75
2023-02-19T07:23:56.228Z,2.83
2023-02-19T07:26:24.219Z,2.25
2023-02-19T07:28:52.435Z,2.28
2023-02-19T07:31:21.313Z,2.83
2023-02-19T07:33:48.842Z,2.50
2023-02-19T07:36:18.182Z,2.58
2023-02-19T07:38:45.587Z,2.97
2023-02-19T07:41:13.836Z,2.38
2023-02-19T07:43:41.163Z,2.88
2023-02-19T07:46:12.021Z,2.35
2023-02-19T07:48:41.349Z,2.13
2023-02-19T07:51:13.106Z,2.28
2023-02-19T07:53:40.635Z,2.65
2023-02-19T07:56:10.604Z,1.75
2023-02-19T07:58:37.989Z,2.88
2023-02-19T08:01:16.599Z,3.30
2023-02-19T08:03:44.821Z,1.88
2023-02-19T08:06:12.717Z,3.15
2023-02-19T08:08:40.630Z,2.10
2023-02-19T08:11:26.501Z,3.85
2023-02-19T08:13:55.065Z,1.83
2023-02-19T08:16:36.751Z,2.70
2023-02-19T08:19:10.162Z,2.38
2023-02-19T08:21:37.537Z,2.00
2023-02-19T08:24:05.608Z,2.40
2023-02-19T08:26:34.071Z,4.25
2023-02-19T08:29:01.483Z,1.77
2023-02-19T08:31:28.916Z,2.03
2023-02-19T08:33:56.328Z,1.48
2023-02-19T08:36:23.829Z,4.22
2023-02-19T08:38:51.427Z,3.25
2023-02-19T08:41:19.359Z,2.17
2023-02-19T08:43:46.555Z,2.00
2023-02-19T08:46:14.001Z,2.25
2023-02-19T08:48:41.541Z,2.45
2023-02-19T08:51:11.734Z,2.78
2023-02-19T08:53:40.488Z,2.55
2023-02-19T08:56:10.061Z,1.75
2023-02-19T08:58:38.586Z,1.98
2023-02-19T09:01:15.181Z,2.85
2023-02-19T09:03:43.079Z,1.77
2023-02-19T09:06:17.766Z,1.67
2023-02-19T09:08:45.166Z,2.17
2023-02-19T09:11:13.198Z,1.70
2023-02-19T09:13:40.741Z,2.22
2023-02-19T09:16:08.544Z,2.20
2023-02-19T09:18:37.407Z,2.40
2023-02-19T09:21:05.933Z,2.35
2023-02-19T09:23:34.571Z,2.45
2023-02-19T09:26:08.589Z,2.92
2023-02-19T09:28:36.444Z,1.65
2023-02-19T09:31:12.281Z,1.92
2023-02-19T09:33:44.484Z,2.05
2023-02-19T09:36:13.018Z,3.05
2023-02-19T09:38:40.854Z,1.80
2023-02-19T09:41:14.304Z,2.13
2023-02-19T09:43:43.095Z,1.83
2023-02-19T09:46:22.318Z,1.80
2023-02-19T09:48:49.683Z,2.35
2023-02-19T09:51:17.988Z,1.48
2023-02-19T09:53:49.279Z,1.60
2023-02-19T09:56:17.699Z,1.70
2023-02-19T09:58:49.772Z,3.08
2023-02-19T10:01:18.419Z,1.92
2023-02-19T10:03:48.573Z,1.70
2023-02-19T10:06:21.828Z,1.33
2023-02-19T10:08:52.429Z,2.90
2023-02-19T10:11:20.045Z,1.45
2023-02-19T10:13:50.321Z,1.60
2023-02-19T10:16:27.224Z,1.63
2023-02-19T10:18:54.686Z,1.75
2023-02-19T10:21:25.457Z,1.77
2023-02-19T10:24:02.774Z,1.45
2023-02-19T10:26:35.200Z,1.45
2023-02-19T10:29:06.990Z,2.03
2023-02-19T10:31:34.571Z,1.88
2023-02-19T10:34:02.528Z,2.85
2023-02-19T10:36:42.581Z,1.80
2023-02-19T10:39:22.366Z,2.13
2023-02-19T10:41:51.125Z,1.70
2023-02-19T10:44:24.636Z,1.60
2023-02-19T10:46:55.480Z,1.35
2023-02-19T10:49:28.598Z,1.50
2023-02-19T10:51:58.650Z,1.55
2023-02-19T10:54:30.243Z,1.55
2023-02-19T10:57:18.018Z,2.75
2023-02-19T10:59:54.160Z,1.45
2023-02-19T11:02:22.124Z,1.50
2023-02-19T11:05:08.994Z,2.08
2023-02-19T11:07:37.632Z,1.63
2023-02-19T11:10:30.227Z,1.35
2023-02-19T11:13:06.730Z,1.77
2023-02-19T11:15:39.115Z,1.65
2023-02-19T11:18:12.748Z,1.08
2023-02-19T11:20:57.836Z,1.27
2023-02-19T11:23:48.566Z,1.60
2023-02-19T11:26:48.049Z,1.17
2023-02-19T11:29:44.216Z,1.30
2023-02-19T11:32:29.834Z,1.35
2023-02-19T11:35:33.165Z,1.70
2023-02-19T11:38:08.649Z,1.67
2023-02-19T11:41:11.600Z,1.92
2023-02-19T11:43:48.624Z,1.60
2023-02-19T11:46:49.428Z,1.88
2023-02-19T11:49:37.645Z,1.27
2023-02-19T11:52:32.296Z,1.55
2023-02-19T11:55:25.654Z,1.35
2023-02-19T11:58:40.758Z,1.45
2023-02-19T12:01:32.261Z,1.55
2023-02-19T12:04:24.363Z,1.85
2023-02-19T12:07:23.114Z,1.50
2023-02-19T12:10:14.802Z,1.42
2023-02-19T12:13:09.318Z,1.30
2023-02-19T12:15:58.445Z,1.38
2023-02-19T12:18:53.791Z,1.20
2023-02-19T12:21:36.312Z,1.13
2023-02-19T12:24:22.504Z,1.38
2023-02-19T12:27:19.464Z,1.15
2023-02-19T12:30:42.614Z,1.15
2023-02-19T12:33:58.158Z,1.15
2023-02-19T12:36:48.958Z,1.30
2023-02-19T12:39:38.004Z,0.90
2023-02-19T12:42:32.023Z,1.13
2023-02-19T12:45:06.678Z,1.00
2023-02-19T12:47:41.371Z,1.95
2023-02-19T12:50:24.491Z,0.80
2023-02-19T12:53:10.835Z,2.47
2023-02-19T12:55:46.376Z,1.00
2023-02-19T12:58:38.540Z,1.20
2023-02-19T13:01:13.357Z,2.08
2023-02-19T13:03:50.258Z,5.57
2023-02-19T13:06:28.763Z,3.47
2023-02-19T13:09:28.357Z,1.40
2023-02-19T13:12:08.556Z,1.90
2023-02-19T13:15:01.922Z,4.50
2023-02-19T13:17:45.323Z,6.70
2023-02-19T13:20:32.595Z,3.72
2023-02-19T13:23:48.873Z,2.90
2023-02-19T13:26:22.540Z,3.65
2023-02-19T13:28:50.402Z,1.48
2023-02-19T13:31:53.133Z,1.42
2023-02-19T13:38:03.164Z,1.83
2023-02-19T13:40:41.370Z,1.35
2023-02-19T13:43:24.620Z,1.50
2023-02-19T13:46:20.544Z,2.17
2023-02-19T13:48:54.340Z,1.20
2023-02-19T13:51:21.883Z,2.80
2023-02-19T13:54:09.340Z,2.15
2023-02-19T13:56:45.266Z,3.40
2023-02-19T13:59:38.711Z,2.47
2023-02-19T14:02:12.795Z,6.22
2023-02-19T14:04:50.259Z,2.35
2023-02-19T14:07:17.704Z,1.85
2023-02-19T14:09:46.679Z,2.83
2023-02-19T14:12:15.839Z,4.32
2023-02-19T14:14:44.010Z,2.15
2023-02-19T14:17:34.165Z,2.20
2023-02-19T14:20:40.776Z,2.17
2023-02-19T14:23:24.760Z,1.80
2023-02-19T14:26:00.472Z,4.68
2023-02-19T14:28:40.731Z,1.90
2023-02-19T14:31:10.985Z,2.20
2023-02-19T14:34:00.222Z,3.55
2023-02-19T14:36:47.870Z,1.90
2023-02-19T14:39:27.335Z,1.88
2023-02-19T14:41:59.259Z,1.63
2023-02-19T14:44:30.608Z,1.70
2023-02-19T14:47:14.493Z,1.88
2023-02-19T14:49:46.846Z,2.05
2023-02-19T14:52:41.047Z,2.65
2023-02-19T14:55:27.244Z,3.13
2023-02-19T14:57:56.770Z,2.33
2023-02-19T15:00:29.696Z,4.32
2023-02-19T15:02:59.773Z,3.28
2023-02-19T15:05:33.282Z,5.65
2023-02-19T15:08:04.503Z,4.18
2023-02-19T15:10:33.478Z,4.57
2023-02-19T15:13:07.509Z,4.82
2023-02-19T15:15:41.696Z,2.97
2023-02-19T15:18:18.274Z,3.65
2023-02-19T15:20:46.213Z,9.48
2023-02-19T15:23:23.434Z,4.50
2023-02-19T15:28:24.993Z,5.45
2023-02-19T15:31:07.656Z,7.95
2023-02-19T15:33:35.544Z,9.45
2023-02-19T15:36:08.726Z,3.40
2023-02-19T15:38:36.870Z,7.00
2023-02-19T15:41:04.878Z,6.03
2023-02-19T15:43:45.898Z,2.53
2023-02-19T15:46:22.020Z,2.33
2023-02-19T15:49:03.113Z,1.80
2023-02-19T15:51:39.557Z,3.13
2023-02-19T15:54:35.186Z,2.60
2023-02-19T15:57:09.539Z,2.17
2023-02-19T15:59:44.431Z,2.40
2023-02-19T16:02:15.535Z,6.72
2023-02-19T16:04:44.829Z,4.32
2023-02-19T16:07:27.948Z,2.78
2023-02-19T16:10:20.756Z,3.42
2023-02-19T16:13:01.051Z,3.17
2023-02-19T16:15:30.592Z,3.05
2023-02-19T16:17:58.968Z,5.63
2023-02-19T16:20:29.522Z,3.55
2023-02-19T16:23:10.996Z,2.25
2023-02-19T16:25:42.212Z,4.18
2023-02-19T16:28:19.132Z,3.92
2023-02-19T16:31:06.941Z,4.03
2023-02-19T16:33:38.725Z,2.47
2023-02-19T16:36:41.804Z,2.80
2023-02-19T16:39:09.424Z,1.60
2023-02-19T16:41:40.037Z,2.67
2023-02-19T16:44:25.488Z,2.08
2023-02-19T16:46:55.938Z,2.15
2023-02-19T16:49:24.690Z,1.60
2023-02-19T16:51:53.823Z,1.65
2023-02-19T16:54:21.360Z,2.67
2023-02-19T16:56:48.740Z,2.53
2023-02-19T16:59:16.180Z,2.20
2023-02-19T17:01:46.507Z,2.47
2023-02-19T17:04:15.984Z,2.30
2023-02-19T17:06:45.661Z,2.00
2023-02-19T17:09:12.990Z,2.67
2023-02-19T17:11:40.412Z,5.20
2023-02-19T17:14:08.331Z,2.72
2023-02-19T17:16:40.020Z,2.88
2023-02-19T17:19:54.977Z,3.67
2023-02-19T17:22:22.681Z,3.13
2023-02-19T17:24:56.071Z,3.50
2023-02-19T17:27:23.831Z,4.20
2023-02-19T17:29:51.517Z,3.15
2023-02-19T17:32:23.083Z,4.07
2023-02-19T17:34:50.936Z,4.35
2023-02-19T17:37:20.727Z,3.67
2023-02-19T17:39:49.132Z,4.22
2023-02-19T17:42:16.868Z,3.78
2023-02-19T17:44:44.383Z,3.30
2023-02-19T17:47:11.909Z,3.78
2023-02-19T17:49:39.647Z,3.58
2023-02-19T17:52:06.987Z,3.33
2023-02-19T17:54:34.400Z,3.80
2023-02-19T17:57:02.189Z,4.20
2023-02-19T17:59:32.900Z,4.38
2023-02-19T18:02:00.340Z,4.03
2023-02-19T18:04:27.908Z,4.32
2023-02-19T18:06:55.893Z,9.20
2023-02-19T18:09:23.473Z,8.75
2023-02-19T18:11:51.077Z,7.15
2023-02-19T18:14:18.506Z,5.10
2023-02-19T18:16:50.517Z,4.45
2023-02-19T18:19:18.615Z,4.63
2023-02-19T18:21:45.996Z,5.72
2023-02-19T18:24:13.451Z,4.60
2023-02-19T18:26:41.202Z,4.20
2023-02-19T18:29:08.551Z,4.70
2023-02-19T18:31:37.987Z,5.18
2023-02-19T18:34:06.497Z,4.40
2023-02-19T18:36:34.067Z,4.38
2023-02-19T18:39:01.373Z,5.20
2023-02-19T18:41:28.728Z,3.72
2023-02-19T18:43:56.125Z,5.75
2023-02-19T18:46:23.610Z,5.45
2023-02-19T18:48:50.970Z,5.38
2023-02-19T18:51:18.672Z,4.78
2023-02-19T18:53:46.132Z,4.57
2023-02-19T18:56:13.511Z,5.07
2023-02-19T18:58:41.011Z,5.63
2023-02-19T19:01:09.196Z,4.32
2023-02-19T19:03:36.642Z,4.70
2023-02-19T19:06:04.137Z,4.85
2023-02-19T19:08:31.648Z,5.18
2023-02-19T19:10:59.089Z,4.63
2023-02-19T19:13:26.350Z,4.20
2023-02-19T19:15:54.068Z,6.53
2023-02-19T19:18:21.352Z,5.80
2023-02-19T19:20:48.648Z,6.60
2023-02-19T19:23:16.014Z,5.18
2023-02-19T19:25:43.468Z,5.05
2023-02-19T19:28:10.768Z,4.68
2023-02-19T19:30:38.963Z,4.95
2023-02-19T19:33:06.444Z,4.65
2023-02-19T19:35:33.867Z,5.13
2023-02-19T19:38:01.632Z,7.07
2023-02-19T19:40:28.888Z,5.18
2023-02-19T19:42:56.671Z,4.40
2023-02-19T19:45:25.199Z,6.10
2023-02-19T19:47:53.111Z,5.30
2023-02-19T19:50:20.754Z,3.58
2023-02-19T19:52:47.984Z,4.15
2023-02-19T19:55:16.337Z,5.13
2023-02-19T19:57:43.638Z,5.13
2023-02-19T20:00:14.652Z,6.32
2023-02-19T20:02:42.389Z,4.43
2023-02-19T20:05:09.788Z,4.85
2023-02-19T20:07:37.215Z,4.78
2023-02-19T20:10:05.771Z,4.60
2023-02-19T20:12:33.227Z,5.70
2023-02-19T20:15:00.618Z,5.57
2023-02-19T20:17:28.919Z,5.65
2023-02-19T20:19:56.184Z,5.82
2023-02-19T20:22:23.930Z,6.93
2023-02-19T20:24:52.312Z,5.78
2023-02-19T20:27:20.780Z,6.72
2023-02-19T20:29:48.219Z,4.88
2023-02-19T20:32:20.581Z,5.88
2023-02-19T20:34:48.424Z,4.10
2023-02-19T20:37:16.178Z,5.15
2023-02-19T20:39:43.639Z,5.25
2023-02-19T20:42:11.042Z,4.80
2023-02-19T20:44:38.618Z,5.38
2023-02-19T20:47:06.229Z,5.10
2023-02-19T20:49:34.447Z,6.63
2023-02-19T20:52:06.167Z,5.43
2023-02-19T20:54:35.200Z,5.93
2023-02-19T20:57:05.075Z,5.15
2023-02-19T20:59:35.397Z,5.28
2023-02-19T21:02:04.384Z,4.43
2023-02-19T21:04:31.928Z,5.05
2023-02-19T21:06:59.853Z,5.05
2023-02-19T21:09:27.073Z,5.80
2023-02-19T21:11:54.449Z,6.20
2023-02-19T21:14:21.947Z,5.85
2023-02-19T21:16:49.271Z,7.43
2023-02-19T21:19:16.993Z,6.65
2023-02-19T21:21:44.575Z,7.05
2023-02-19T21:24:13.596Z,7.00
2023-02-19T21:26:42.824Z,7.38
2023-02-19T21:29:14.636Z,7.70
2023-02-19T21:31:48.594Z,7.32
2023-02-19T21:34:18.698Z,6.57
2023-02-19T21:36:46.199Z,6.53
2023-02-19T21:39:16.947Z,6.30
2023-02-19T21:41:44.632Z,7.63
2023-02-19T21:44:12.000Z,5.90
2023-02-19T21:46:39.725Z,5.78
2023-02-19T21:49:07.519Z,5.88
2023-02-19T21:51:37.455Z,4.35
2023-02-19T21:54:06.067Z,5.93
2023-02-19T21:56:36.348Z,5.35
2023-02-19T21:59:04.463Z,4.40
2023-02-19T22:01:40.392Z,4.45
2023-02-19T22:04:09.119Z,4.63
2023-02-19T22:06:39.080Z,4.68
2023-02-19T22:09:07.687Z,4.05
2023-02-19T22:11:35.318Z,5.68
2023-02-19T22:14:03.022Z,6.68
2023-02-19T22:16:30.432Z,6.10
2023-02-19T22:18:59.268Z,4.43
2023-02-19T22:21:29.473Z,4.38
2023-02-19T22:23:58.293Z,5.55
2023-02-19T22:26:31.950Z,4.97
2023-02-19T22:28:59.899Z,16.08
2023-02-19T22:31:28.269Z,24.10
2023-02-19T22:33:57.131Z,22.55
2023-02-19T22:36:27.691Z,35.53
2023-02-19T22:38:55.233Z,33.40
2023-02-19T22:41:23.468Z,40.63
2023-02-19T22:43:53.931Z,13.20
2023-02-19T22:46:25.558Z,10.18
2023-02-19T22:48:52.899Z,6.68
2023-02-19T22:51:22.205Z,11.18
2023-02-19T22:53:52.211Z,10.68
2023-02-19T22:56:22.715Z,5.82
2023-02-19T22:58:50.466Z,6.40
2023-02-19T23:01:18.579Z,2.97
2023-02-19T23:03:45.833Z,4.75
2023-02-19T23:06:14.108Z,4.18
2023-02-19T23:08:42.882Z,4.95
2023-02-19T23:11:12.421Z,3.78
2023-02-19T23:13:42.698Z,4.13
2023-02-19T23:16:10.380Z,3.97
2023-02-19T23:18:37.921Z,2.35
2023-02-19T23:21:05.503Z,3.83
2023-02-19T23:23:33.336Z,2.67
2023-02-19T23:26:00.616Z,4.47
2023-02-19T23:28:27.942Z,3.40
2023-02-19T23:30:55.511Z,3.28
2023-02-19T23:33:22.893Z,3.80
2023-02-19T23:35:50.224Z,3.40
2023-02-19T23:38:17.547Z,4.68
2023-02-19T23:40:45.541Z,3.53
2023-02-19T23:43:13.198Z,3.88
2023-02-19T23:45:40.754Z,4.50
2023-02-19T23:48:08.131Z,3.15
2023-02-19T23:50:35.424Z,3.33
2023-02-19T23:53:02.773Z,4.95
2023-02-19T23:55:30.161Z,4.30
2023-02-19T23:57:57.508Z,4.20
